Time;durP1;ratioP1;P1;durP2;ratioP2;P2;SDS_P1;SDS_P2;PMS_P1;PMS_P2;Temp;Humidity;BMP_temperature;BMP_pressure;BME280_temperature;BME280_humidity;BME280_pressure;Samples;Min_cycle;Max_cycle;Signal;HPM_P1;HPM_P2
2022/04/06 00:01:30;;;;;;;6.85;3.05;;;;;;;1.80;82.88;94613.16;5093107;28;20093;-45
2022/04/06 00:03:57;;;;;;;9.55;3.45;;;;;;;1.76;83.28;94615.28;5094120;28;20098;-44
2022/04/06 00:06:24;;;;;;;7.80;4.22;;;;;;;1.78;82.67;94609.97;5090794;28;20067;-47
2022/04/06 00:09:11;;;;;;;6.03;3.17;;;;;;;1.79;82.70;94616.72;5090889;28;20105;-44
2022/04/06 00:11:38;;;;;;;5.85;3.10;;;;;;;1.79;83.21;94616.72;5092209;28;20032;-46
2022/04/06 00:14:05;;;;;;;6.50;3.25;;;;;;;1.81;83.21;94615.53;5092503;28;20048;-46
2022/04/06 00:16:32;;;;;;;5.75;3.13;;;;;;;1.78;83.15;94615.09;5093136;28;20101;-48
2022/04/06 00:18:59;;;;;;;9.30;3.78;;;;;;;1.77;82.75;94618.66;5094034;28;20048;-48
2022/04/06 00:21:27;;;;;;;6.30;3.35;;;;;;;1.61;83.39;94620.47;5091759;28;20040;-48
2022/04/06 00:23:54;;;;;;;6.35;3.72;;;;;;;1.66;83.43;94617.38;5091116;28;20425;-47
2022/04/06 00:26:21;;;;;;;6.15;3.67;;;;;;;1.65;84.23;94619.13;5091702;28;20054;-49
2022/04/06 00:28:48;;;;;;;10.73;3.95;;;;;;;1.67;84.19;94617.16;5092161;28;20046;-51
2022/04/06 00:31:15;;;;;;;6.03;3.05;;;;;;;1.71;83.86;94626.09;5093292;28;20463;-50
2022/04/06 00:33:42;;;;;;;6.35;3.38;;;;;;;1.68;83.80;94620.53;5092999;28;20112;-45
2022/04/06 00:36:09;;;;;;;8.27;3.53;;;;;;;1.69;84.05;94627.25;5090480;28;20050;-45
2022/04/06 00:38:35;;;;;;;4.22;2.70;;;;;;;1.65;85.00;94631.94;5091301;28;20048;-46
2022/04/06 00:41:02;;;;;;;7.35;3.38;;;;;;;1.64;84.22;94625.25;5091245;28;20104;-47
2022/04/06 00:43:29;;;;;;;8.57;3.75;;;;;;;1.55;83.92;94636.59;5094325;28;20118;-47
2022/04/06 00:45:56;;;;;;;6.13;2.88;;;;;;;1.51;84.94;94631.03;5092886;28;20051;-45
2022/04/06 00:48:23;;;;;;;4.72;2.92;;;;;;;1.55;85.58;94636.59;5093285;28;20508;-48
2022/04/06 00:50:50;;;;;;;16.15;5.53;;;;;;;1.48;85.58;94620.31;5091077;28;20039;-47
2022/04/06 00:53:17;;;;;;;7.30;3.42;;;;;;;1.40;85.85;94628.09;5089717;28;20291;-45
2022/04/06 00:55:44;;;;;;;10.32;3.03;;;;;;;1.41;85.41;94639.97;5090450;28;20050;-46
2022/04/06 00:58:11;;;;;;;6.88;2.90;;;;;;;1.25;85.82;94630.69;5091652;28;20047;-45
2022/04/06 01:00:38;;;;;;;5.38;3.55;;;;;;;1.24;85.74;94644.47;5091615;28;20622;-47
2022/04/06 01:03:05;;;;;;;4.78;2.80;;;;;;;1.15;86.70;94641.19;5094413;28;20489;-44
2022/04/06 01:05:31;;;;;;;10.07;4.13;;;;;;;1.09;86.86;94636.78;5090021;28;20702;-47
2022/04/06 01:08:00;;;;;;;7.00;3.42;;;;;;;1.06;87.66;94637.94;5091945;28;20508;-47
2022/04/06 01:10:27;;;;;;;7.95;3.28;;;;;;;1.04;87.80;94633.94;5088822;28;20048;-43
2022/04/06 01:12:55;;;;;;;14.23;3.92;;;;;;;1.09;87.69;94623.97;5093556;28;20065;-44
2022/04/06 01:15:24;;;;;;;10.45;4.00;;;;;;;1.17;88.05;94644.41;5091679;28;20101;-46
2022/04/06 01:17:50;;;;;;;8.00;3.63;;;;;;;1.18;87.88;94640.84;5090433;28;20052;-47
2022/04/06 01:20:17;;;;;;;11.55;3.60;;;;;;;1.15;87.96;94641.19;5090386;28;20044;-48
2022/04/06 01:22:44;;;;;;;6.90;3.70;;;;;;;1.12;87.74;94639.00;5090104;28;20036;-44
2022/04/06 01:25:11;;;;;;;7.63;4.13;;;;;;;1.03;88.19;94646.00;5089745;28;20043;-44
2022/04/06 01:27:38;;;;;;;6.93;4.15;;;;;;;0.99;89.38;94636.25;5091840;28;20482;-44
2022/04/06 01:30:06;;;;;;;7.97;4.10;;;;;;;0.99;90.22;94636.25;5091988;28;20101;-43
2022/04/06 01:32:35;;;;;;;7.80;3.60;;;;;;;1.00;nan;94628.38;5091209;28;20043;-43
2022/04/06 01:35:03;;;;;;;7.32;3.47;;;;;;;1.03;89.90;94632.38;5089842;28;20036;-44
2022/04/06 01:37:31;;;;;;;6.82;3.42;;;;;;;1.04;89.90;94634.75;5087951;28;20397;-44
2022/04/06 01:39:58;;;;;;;4.43;2.38;;;;;;;1.05;89.53;94630.44;5091343;28;20044;-44
2022/04/06 01:42:25;;;;;;;4.82;2.80;;;;;;;0.99;89.71;94631.13;5090893;28;20113;-49
2022/04/06 01:44:52;;;;;;;5.40;3.15;;;;;;;0.99;89.77;94641.38;5091808;28;20052;-44
2022/04/06 01:47:20;;;;;;;16.23;3.97;;;;;;;1.06;89.24;94637.13;5090618;28;20040;-44
2022/04/06 01:52:35;;;;;;;5.35;2.78;;;;;;;1.03;89.29;94632.38;5090130;28;20040;-44
2022/04/06 01:55:07;;;;;;;5.20;3.40;;;;;;;0.99;90.81;94643.94;5090802;28;20509;-47
2022/04/06 01:57:36;;;;;;;8.77;3.30;;;;;;;1.02;89.77;94646.16;5091942;28;20063;-47
2022/04/06 02:00:09;;;;;;;6.80;3.92;;;;;;;1.02;89.59;94638.47;5090096;28;20043;-46
2022/04/06 02:02:40;;;;;;;7.75;3.78;;;;;;;0.96;89.45;94637.41;5090203;28;20052;-43
2022/04/06 02:05:08;;;;;;;10.25;3.33;;;;;;;0.87;89.69;94639.25;5091773;28;20048;-45
2022/04/06 02:07:35;;;;;;;4.68;3.25;;;;;;;0.82;89.58;94644.09;5090859;28;20048;-44
2022/04/06 02:10:02;;;;;;;8.15;3.13;;;;;;;0.71;89.78;94647.09;5088610;28;20032;-46
2022/04/06 02:12:29;;;;;;;13.20;3.25;;;;;;;0.61;90.78;94638.84;5090154;28;20124;-44
2022/04/06 02:14:57;;;;;;;9.10;3.63;;;;;;;0.53;92.00;94644.84;5089892;28;20421;-44
2022/04/06 02:17:27;;;;;;;13.50;4.28;;;;;;;0.61;92.36;94644.75;5090708;28;20051;-44
2022/04/06 02:19:55;;;;;;;6.60;2.47;;;;;;;0.57;91.74;94634.06;5091464;28;20093;-49
2022/04/06 02:22:22;;;;;;;6.75;3.55;;;;;;;0.62;91.94;94650.69;5090393;28;20611;-47
2022/04/06 02:24:49;;;;;;;8.13;2.88;;;;;;;0.57;91.74;94639.19;5088395;28;20527;-50
2022/04/06 02:27:16;;;;;;;6.78;2.85;;;;;;;0.51;92.22;94654.47;5091287;28;20047;-45
2022/04/06 02:29:43;;;;;;;11.02;3.28;;;;;;;0.52;92.50;94646.63;5088759;28;20101;-49
2022/04/06 02:32:10;;;;;;;7.43;2.92;;;;;;;0.55;92.87;94645.47;5087840;28;20062;-47
2022/04/06 02:34:39;;;;;;;11.85;3.95;;;;;;;0.57;92.43;94654.56;5092010;28;20497;-48
2022/04/06 02:37:08;;;;;;;8.40;4.03;;;;;;;0.54;92.47;94654.94;5088894;28;20567;-46
2022/04/06 02:39:34;;;;;;;9.73;4.00;;;;;;;0.48;92.31;94658.16;5088267;28;20048;-45
2022/04/06 02:42:02;;;;;;;8.55;3.85;;;;;;;0.45;92.75;94655.97;5089361;28;20062;-47
2022/04/06 02:44:29;;;;;;;15.63;3.70;;;;;;;0.43;92.33;94657.88;5087925;28;20067;-46
2022/04/06 02:46:55;;;;;;;7.57;2.90;;;;;;;0.38;92.50;94658.41;5090295;28;20047;-46
2022/04/06 02:49:22;;;;;;;8.65;4.35;;;;;;;0.25;93.07;94642.00;5091265;28;20501;-45
2022/04/06 02:51:49;;;;;;;8.40;3.97;;;;;;;0.36;93.34;94669.78;5087323;28;20485;-45
2022/04/06 02:54:16;;;;;;;8.02;3.13;;;;;;;0.29;93.82;94667.13;5088798;28;20587;-46
2022/04/06 02:56:43;;;;;;;6.63;3.28;;;;;;;0.29;93.24;94677.38;5090260;28;20043;-46
2022/04/06 02:59:10;;;;;;;11.23;3.88;;;;;;;0.23;93.99;94672.13;5087334;28;20058;-45
2022/04/06 03:01:36;;;;;;;10.43;3.78;;;;;;;0.14;94.28;94664.47;5087280;28;20121;-46
2022/04/06 03:04:04;;;;;;;6.45;3.55;;;;;;;0.08;94.51;94665.19;5086800;28;20494;-48
2022/04/06 03:06:30;;;;;;;9.52;3.97;;;;;;;0.09;94.88;94671.91;5085949;28;20072;-50
2022/04/06 03:08:57;;;;;;;6.97;4.03;;;;;;;0.09;95.11;94665.97;5064560;28;20043;-50
2022/04/06 03:11:24;;;;;;;8.23;3.63;;;;;;;0.07;95.91;94662.78;5083133;28;20060;-48
2022/04/06 03:13:51;;;;;;;7.75;3.58;;;;;;;0.08;95.80;94665.19;5087617;28;20043;-49
2022/04/06 03:16:18;;;;;;;10.75;5.15;;;;;;;0.15;95.98;94671.22;5087039;28;20125;-49
2022/04/06 03:18:45;;;;;;;10.88;4.88;;;;;;;0.16;96.01;94675.38;5085185;28;20032;-49
2022/04/06 03:21:12;;;;;;;7.65;3.55;;;;;;;0.18;96.23;94681.13;5087380;28;20457;-52
2022/04/06 03:23:39;;;;;;;16.05;3.72;;;;;;;0.13;96.37;94678.28;5087591;28;20068;-47
2022/04/06 03:26:05;;;;;;;7.05;4.10;;;;;;;0.08;97.03;94677.97;5088224;28;20430;-51
2022/04/06 03:28:32;;;;;;;11.05;4.53;;;;;;;0.05;97.64;94675.75;5087075;28;20044;-47
2022/04/06 03:30:59;;;;;;;9.70;2.92;;;;;;;0.09;97.54;94671.91;5086558;28;20052;-48
2022/04/06 03:33:26;;;;;;;8.80;4.60;;;;;;;0.11;96.69;94675.09;5088410;28;20046;-52
2022/04/06 03:35:53;;;;;;;8.65;4.68;;;;;;;0.15;96.51;94678.09;5086611;28;20276;-49
2022/04/06 03:38:20;;;;;;;8.35;4.30;;;;;;;0.12;96.52;94691.25;5088302;28;21550;-46
2022/04/06 03:40:47;;;;;;;7.10;4.25;;;;;;;-0.06;96.17;94674.38;5088195;28;20047;-49
2022/04/06 03:43:14;;;;;;;5.90;4.10;;;;;;;-0.16;96.84;94673.00;5086574;28;20055;-47
2022/04/06 03:45:41;;;;;;;12.70;4.43;;;;;;;-0.06;96.59;94688.94;5088216;28;20054;-48
2022/04/06 03:48:09;;;;;;;9.98;4.30;;;;;;;0.02;96.46;94686.34;5087368;28;20062;-49
2022/04/06 03:50:36;;;;;;;12.65;4.60;;;;;;;-0.11;96.54;94680.97;5087211;28;20052;-48
2022/04/06 03:53:02;;;;;;;11.85;4.68;;;;;;;-0.01;96.54;94702.03;5087460;28;20822;-48
2022/04/06 03:55:30;;;;;;;17.48;4.32;;;;;;;0.05;96.25;94703.91;5086637;28;20137;-51
2022/04/06 03:57:57;;;;;;;11.25;3.95;;;;;;;0.05;95.94;94700.56;5086691;28;20694;-50
2022/04/06 04:00:29;;;;;;;12.35;4.70;;;;;;;0.05;95.37;94696.25;5091090;28;20493;-47
2022/04/06 04:02:56;;;;;;;8.48;4.85;;;;;;;0.02;95.63;94701.72;5090876;28;20055;-49
2022/04/06 04:05:23;;;;;;;20.33;5.40;;;;;;;-0.03;95.49;94703.97;5087585;28;20154;-50
2022/04/06 04:07:49;;;;;;;13.50;4.40;;;;;;;-0.02;96.79;94705.56;5095532;28;20060;-45
2022/04/06 04:10:19;;;;;;;9.73;4.47;;;;;;;0.09;96.32;94706.94;5090134;28;20036;-48
2022/04/06 04:12:47;;;;;;;13.52;5.50;;;;;;;0.05;96.41;94719.28;5085101;28;20071;-48
2022/04/06 04:15:15;;;;;;;25.50;10.40;;;;;;;0.04;96.56;94710.03;5089384;28;20112;-48
2022/04/06 04:17:41;;;;;;;20.20;8.23;;;;;;;0.04;96.26;94710.03;5090209;28;20056;-50
2022/04/06 04:20:09;;;;;;;28.38;7.32;;;;;;;0.07;96.89;94717.34;5089219;28;22762;-47
2022/04/06 04:22:36;;;;;;;19.55;7.32;;;;;;;0.10;96.79;94711.91;5082203;28;20052;-47
2022/04/06 04:25:03;;;;;;;14.13;5.80;;;;;;;0.17;96.95;94723.06;5080773;28;20040;-48
2022/04/06 04:27:30;;;;;;;12.45;6.30;;;;;;;0.25;96.67;94719.66;5085594;28;20467;-46
2022/04/06 04:29:58;;;;;;;14.30;6.55;;;;;;;0.32;96.52;94722.34;5089410;28;20487;-47
2022/04/06 04:32:29;;;;;;;13.48;6.25;;;;;;;0.36;97.05;94733.84;5097305;28;20067;-50
2022/04/06 04:34:55;;;;;;;11.48;5.65;;;;;;;0.41;97.91;94741.81;5091756;28;20467;-49
2022/04/06 04:37:22;;;;;;;16.00;5.88;;;;;;;0.48;98.68;94731.69;5092605;28;20204;-47
2022/04/06 04:39:49;;;;;;;13.95;6.10;;;;;;;0.61;98.53;94741.38;5093384;28;20058;-49
2022/04/06 04:42:16;;;;;;;11.15;6.03;;;;;;;0.69;98.63;94746.44;5097894;28;20081;-44
2022/04/06 04:44:42;;;;;;;15.02;7.00;;;;;;;0.82;100.00;94749.22;5097764;28;20089;-45
2022/04/06 04:47:09;;;;;;;18.52;5.93;;;;;;;1.01;100.00;94757.41;5099976;28;20040;-46
2022/04/06 04:49:37;;;;;;;41.35;13.30;;;;;;;1.14;100.00;94752.50;5091033;28;20040;-47
2022/04/06 04:52:04;;;;;;;33.33;13.80;;;;;;;1.32;100.00;94760.66;5091908;28;20059;-49
2022/04/06 04:54:31;;;;;;;38.67;12.95;;;;;;;1.41;100.00;94765.72;5089881;28;20416;-48
2022/04/06 04:56:57;;;;;;;35.80;14.80;;;;;;;1.61;100.00;94763.44;5096762;28;20044;-44
2022/04/06 04:59:25;;;;;;;24.35;11.45;;;;;;;1.78;99.28;94753.78;5093324;28;20067;-46
2022/04/06 05:01:52;;;;;;;27.60;12.30;;;;;;;1.89;98.20;94759.25;5091947;28;20545;-47
2022/04/06 05:04:19;;;;;;;30.85;13.15;;;;;;;2.08;96.58;94765.59;5091041;28;20516;-49
2022/04/06 05:06:46;;;;;;;39.78;14.63;;;;;;;2.26;94.00;94769.56;5090834;28;20044;-46
2022/04/06 05:09:13;;;;;;;37.80;17.25;;;;;;;2.31;93.03;94769.84;5090136;28;20040;-49
2022/04/06 05:11:40;;;;;;;40.90;16.58;;;;;;;2.50;92.19;94778.72;5090083;28;20413;-51
2022/04/06 05:14:07;;;;;;;17.45;9.27;;;;;;;2.66;93.43;94783.63;5088724;28;20052;-47
2022/04/06 05:16:33;;;;;;;20.67;8.50;;;;;;;2.82;92.65;94781.81;5089026;28;20824;-49
2022/04/06 05:19:01;;;;;;;23.33;10.27;;;;;;;2.92;91.97;94784.88;5089315;28;20101;-49
2022/04/06 05:21:28;;;;;;;19.30;9.68;;;;;;;3.02;90.73;94787.13;5089231;28;20072;-47
2022/04/06 05:23:55;;;;;;;20.55;10.88;;;;;;;3.10;90.19;94794.75;5088627;28;20028;-50
2022/04/06 05:26:21;;;;;;;21.02;11.95;;;;;;;3.24;90.21;94801.59;5087793;28;20055;-50
2022/04/06 05:28:48;;;;;;;16.40;8.38;;;;;;;3.43;89.44;94800.16;5090123;28;20058;-46
2022/04/06 05:31:17;;;;;;;15.43;8.38;;;;;;;3.68;86.82;94801.50;5090985;28;20071;-51
2022/04/06 05:33:44;;;;;;;14.05;8.00;;;;;;;3.83;85.97;94804.75;5092482;28;20070;-53
2022/04/06 05:36:17;;;;;;;19.77;6.90;;;;;;;4.01;84.42;94802.47;5088937;28;20055;-50
2022/04/06 05:38:43;;;;;;;12.75;6.47;;;;;;;4.12;83.93;94802.94;5089795;28;20048;-48
2022/04/06 05:41:10;;;;;;;16.98;7.47;;;;;;;4.31;83.67;94801.44;5088884;28;20483;-47
2022/04/06 05:43:37;;;;;;;11.73;7.05;;;;;;;4.48;82.82;94801.91;5088418;28;20044;-48
2022/04/06 05:46:04;;;;;;;14.95;6.38;;;;;;;4.58;83.17;94802.34;5089872;28;20047;-49
2022/04/06 05:48:31;;;;;;;18.75;7.07;;;;;;;4.69;83.41;94811.31;5091986;28;20040;-50
2022/04/06 05:50:57;;;;;;;16.30;7.05;;;;;;;4.82;83.31;94820.84;5092819;28;20092;-52
2022/04/06 05:53:24;;;;;;;21.05;7.93;;;;;;;4.86;81.92;94817.69;5089501;28;20040;-51
2022/04/06 05:55:52;;;;;;;16.13;7.78;;;;;;;5.02;81.92;94816.50;5090823;28;20470;-48
2022/04/06 05:58:18;;;;;;;13.30;7.63;;;;;;;5.17;81.49;94822.31;5091084;28;20590;-48
2022/04/06 06:00:45;;;;;;;14.82;7.57;;;;;;;5.31;80.58;94817.16;5090357;28;20040;-47
2022/04/06 06:03:12;;;;;;;16.35;7.75;;;;;;;5.37;80.46;94816.38;5088714;28;20054;-51
2022/04/06 06:05:39;;;;;;;18.40;7.47;;;;;;;5.54;80.37;94817.53;5088412;28;20070;-47
2022/04/06 06:08:16;;;;;;;18.38;8.27;;;;;;;5.61;80.68;94821.94;5090199;28;20069;-50
2022/04/06 06:10:43;;;;;;;17.65;8.70;;;;;;;5.70;80.27;94821.50;5089209;28;20048;-48
2022/04/06 06:13:10;;;;;;;11.73;6.80;;;;;;;5.76;80.39;94822.50;5090594;28;20040;-50
2022/04/06 06:15:36;;;;;;;20.33;8.18;;;;;;;5.87;80.37;94816.72;5090283;28;20725;-51
2022/04/06 06:18:04;;;;;;;15.30;7.32;;;;;;;6.03;79.67;94814.72;5090047;28;20093;-51
2022/04/06 06:20:31;;;;;;;15.55;7.60;;;;;;;6.14;79.14;94821.88;5091277;28;20043;-50
2022/04/06 06:22:57;;;;;;;13.68;7.18;;;;;;;6.17;79.09;94821.47;5090776;28;20040;-48
2022/04/06 06:25:24;;;;;;;14.63;7.97;;;;;;;6.28;78.78;94818.25;5089133;28;20829;-48
2022/04/06 06:27:51;;;;;;;15.18;8.02;;;;;;;6.35;79.02;94818.22;5089464;28;20097;-47
2022/04/06 06:30:18;;;;;;;12.45;7.53;;;;;;;6.49;78.45;94813.81;5089362;28;20048;-48
2022/04/06 06:32:45;;;;;;;27.63;9.20;;;;;;;6.59;77.15;94819.34;5087180;28;20055;-51
2022/04/06 06:35:12;;;;;;;14.73;7.70;;;;;;;6.67;77.33;94813.13;5088163;28;20090;-47
2022/04/06 06:37:50;;;;;;;14.20;8.50;;;;;;;6.84;76.35;94811.66;5088601;28;20165;-51
2022/04/06 06:40:19;;;;;;;23.85;8.48;;;;;;;6.96;75.54;94819.53;5087750;28;20501;-51
2022/04/06 06:42:46;;;;;;;14.45;7.63;;;;;;;7.01;74.96;94818.94;5089529;28;20051;-51
2022/04/06 06:45:13;;;;;;;26.90;11.73;;;;;;;7.11;74.41;94815.88;5090297;28;20071;-48
2022/04/06 06:47:40;;;;;;;27.55;16.40;;;;;;;7.29;73.41;94813.34;5088505;28;20062;-48
2022/04/06 06:50:12;;;;;;;25.27;13.63;;;;;;;7.39;72.48;94818.84;5089338;28;20592;-49
2022/04/06 06:52:39;;;;;;;19.67;10.27;;;;;;;7.51;72.47;94815.56;5087410;28;20112;-52
2022/04/06 06:55:13;;;;;;;15.35;8.85;;;;;;;7.71;71.86;94815.44;5066777;28;20062;-49
2022/04/06 06:57:39;;;;;;;16.02;8.45;;;;;;;7.76;69.87;94818.97;5087480;28;20644;-50
2022/04/06 07:00:07;;;;;;;15.52;7.50;;;;;;;7.92;69.81;94816.81;5087199;28;20040;-49
2022/04/06 07:02:34;;;;;;;14.35;6.40;;;;;;;8.01;68.08;94816.34;5088224;28;20039;-45
2022/04/06 07:05:01;;;;;;;19.15;8.25;;;;;;;8.09;68.55;94807.47;5089397;28;20401;-48
2022/04/06 07:07:28;;;;;;;19.73;8.02;;;;;;;8.26;68.96;94809.50;5090033;28;20452;-51
2022/04/06 07:09:54;;;;;;;13.48;7.72;;;;;;;8.44;67.79;94806.91;5087633;28;20040;-47
2022/04/06 07:12:21;;;;;;;17.60;8.70;;;;;;;8.59;67.23;94807.34;5084039;28;20101;-51
2022/04/06 07:14:54;;;;;;;20.48;7.97;;;;;;;8.78;65.32;94809.91;5085572;28;20056;-50
2022/04/06 07:17:20;;;;;;;16.90;8.10;;;;;;;8.88;64.70;94805.00;5084297;28;20066;-49
2022/04/06 07:19:47;;;;;;;13.07;6.80;;;;;;;8.94;63.18;94811.88;5086516;28;20048;-47
2022/04/06 07:22:14;;;;;;;14.10;6.85;;;;;;;9.06;62.22;94816.34;5085105;28;20121;-50
2022/04/06 07:24:41;;;;;;;9.55;5.45;;;;;;;9.30;61.79;94810.19;5086765;28;20056;-49
2022/04/06 07:27:15;;;;;;;16.52;7.75;;;;;;;9.39;61.49;94802.84;5085315;28;20154;-46
2022/04/06 07:29:42;;;;;;;15.05;7.65;;;;;;;9.67;60.90;94804.81;5087305;28;20142;-48
2022/04/06 07:32:11;;;;;;;24.05;7.68;;;;;;;9.72;60.04;94804.13;5087346;28;20044;-48
2022/04/06 07:34:38;;;;;;;19.77;7.50;;;;;;;9.91;60.46;94802.22;5086341;28;20059;-49
2022/04/06 07:37:05;;;;;;;16.42;8.15;;;;;;;10.17;59.35;94810.56;5089209;28;20148;-49
2022/04/06 07:39:32;;;;;;;13.32;7.35;;;;;;;10.40;59.14;94810.56;5087496;28;20043;-46
2022/04/06 07:41:59;;;;;;;15.25;7.05;;;;;;;10.49;58.48;94809.16;5087565;28;20044;-47
2022/04/06 07:44:25;;;;;;;19.30;7.90;;;;;;;10.59;58.39;94810.38;5084855;28;20047;-50
2022/04/06 07:46:52;;;;;;;12.52;6.13;;;;;;;10.59;57.67;94813.00;5087684;28;20032;-47
2022/04/06 07:49:19;;;;;;;13.88;6.60;;;;;;;10.71;57.13;94818.97;5086421;28;20070;-52
2022/04/06 07:51:47;;;;;;;12.05;6.18;;;;;;;10.77;56.23;94815.44;5087330;28;20036;-47
2022/04/06 07:54:14;;;;;;;11.15;6.38;;;;;;;10.82;56.32;94807.72;5086680;28;20085;-47
2022/04/06 07:56:42;;;;;;;17.02;6.88;;;;;;;10.96;56.83;94817.88;5087145;28;20120;-46
2022/04/06 07:59:09;;;;;;;14.18;5.63;;;;;;;11.05;55.49;94811.25;5085822;28;20039;-46
2022/04/06 08:03:07;;;;;;;13.52;6.35;;;;;;;11.09;55.78;94809.75;5081247;27;20140;-47
2022/04/06 08:05:35;;;;;;;17.38;5.43;;;;;;;11.35;55.63;94795.34;5082443;28;20428;-51
2022/04/06 08:08:02;;;;;;;11.32;4.75;;;;;;;11.60;54.33;94810.59;5082188;28;20055;-47
2022/04/06 08:10:30;;;;;;;9.38;5.60;;;;;;;11.70;54.17;94806.56;5082768;28;20145;-50
2022/04/06 08:12:59;;;;;;;11.30;6.45;;;;;;;11.78;54.80;94803.56;5082475;28;20506;-45
2022/04/06 08:15:27;;;;;;;9.15;4.72;;;;;;;12.03;52.85;94801.34;5079498;28;20047;-48
2022/04/06 08:17:54;;;;;;;6.20;4.20;;;;;;;12.17;51.92;94801.81;5080685;28;20094;-49
2022/04/06 08:20:21;;;;;;;8.45;4.65;;;;;;;12.19;52.10;94801.53;5081543;28;20078;-49
2022/04/06 08:22:50;;;;;;;9.98;5.13;;;;;;;12.35;52.42;94808.56;5080207;28;20041;-47
2022/04/06 08:25:17;;;;;;;6.90;4.05;;;;;;;12.56;50.40;94800.97;5081436;28;20082;-50
2022/04/06 08:28:02;;;;;;;9.55;4.10;;;;;;;12.77;50.85;94800.16;5082314;28;20048;-48
2022/04/06 08:30:29;;;;;;;11.57;4.32;;;;;;;12.98;49.34;94802.97;5080864;28;20044;-46
2022/04/06 08:32:58;;;;;;;8.30;3.97;;;;;;;13.04;50.33;94791.53;5080190;28;20137;-47
2022/04/06 08:35:26;;;;;;;5.20;3.70;;;;;;;13.11;49.63;94799.97;5083159;28;20047;-52
2022/04/06 08:37:53;;;;;;;11.45;4.70;;;;;;;13.33;49.84;94796.53;5084343;28;20590;-49
2022/04/06 08:40:20;;;;;;;9.68;4.30;;;;;;;13.36;48.41;94796.84;5084754;28;20047;-47
2022/04/06 08:42:47;;;;;;;13.32;5.00;;;;;;;13.39;48.81;94798.16;5084166;28;20044;-46
2022/04/06 08:45:16;;;;;;;9.25;6.28;;;;;;;13.74;48.41;94787.19;5082317;28;20040;-48
2022/04/06 08:47:49;;;;;;;11.27;4.00;;;;;;;13.88;46.36;94792.78;5081939;28;20041;-46
2022/04/06 08:50:20;;;;;;;8.00;4.57;;;;;;;13.85;46.79;94793.28;5084261;28;20044;-48
2022/04/06 08:52:48;;;;;;;11.18;4.25;;;;;;;14.00;45.46;94794.41;5084286;28;20040;-52
2022/04/06 08:55:32;;;;;;;12.27;4.45;;;;;;;14.12;46.58;94781.94;5083149;28;20124;-46
2022/04/06 08:58:00;;;;;;;8.32;4.40;;;;;;;14.39;46.33;94792.28;5086129;28;20571;-48
2022/04/06 09:00:27;;;;;;;12.02;3.92;;;;;;;14.50;45.32;94795.72;5082392;28;20052;-46
2022/04/06 09:02:54;;;;;;;9.15;4.00;;;;;;;14.48;44.12;94784.72;5082104;28;20490;-46
2022/04/06 09:05:23;;;;;;;14.02;3.65;;;;;;;14.69;44.10;94781.16;5083687;28;20067;-48
2022/04/06 09:07:53;;;;;;;8.35;3.00;;;;;;;14.66;42.56;94792.13;5085579;28;20044;-49
2022/04/06 09:10:33;;;;;;;9.85;3.72;;;;;;;14.85;43.12;94775.94;5083052;28;20483;-49
2022/04/06 09:13:15;;;;;;;9.43;4.15;;;;;;;15.00;42.82;94783.84;5078262;28;20036;-48
2022/04/06 09:15:43;;;;;;;7.57;3.83;;;;;;;15.22;40.21;94782.84;5071866;28;20451;-51
2022/04/06 09:18:11;;;;;;;11.40;4.13;;;;;;;15.36;42.68;94777.84;5070613;28;20049;-45
2022/04/06 09:20:37;;;;;;;10.43;4.40;;;;;;;15.65;42.17;94770.25;5070184;28;20039;-52
2022/04/06 09:23:05;;;;;;;8.52;3.40;;;;;;;15.71;40.79;94774.44;5068851;28;20036;-49
2022/04/06 09:25:37;;;;;;;6.93;3.28;;;;;;;15.81;40.01;94766.59;5071080;28;20037;-47
2022/04/06 09:28:12;;;;;;;6.47;3.13;;;;;;;15.90;39.55;94766.03;5071564;28;20052;-48
2022/04/06 09:30:41;;;;;;;6.10;2.88;;;;;;;15.95;38.59;94756.28;5068508;28;20457;-47
2022/04/06 09:33:18;;;;;;;9.27;3.20;;;;;;;16.17;38.43;94740.22;5068270;28;20574;-50
2022/04/06 09:35:46;;;;;;;9.80;3.15;;;;;;;16.27;37.00;94749.13;5067772;28;20052;-47
2022/04/06 09:38:13;;;;;;;7.97;3.00;;;;;;;16.51;38.27;94738.78;5070914;28;20046;-46
2022/04/06 09:40:41;;;;;;;5.38;3.00;;;;;;;16.83;35.81;94746.28;5068374;28;20040;-48
2022/04/06 09:43:22;;;;;;;5.10;2.30;;;;;;;17.03;31.34;94734.06;5068945;28;20044;-47
2022/04/06 09:48:56;;;;;;;3.58;2.15;;;;;;;16.96;31.51;94740.41;5069721;28;20123;-50
2022/04/06 09:51:23;;;;;;;6.15;3.03;;;;;;;17.20;32.86;94739.72;5068700;28;20484;-46
2022/04/06 09:53:52;;;;;;;9.48;2.67;;;;;;;17.68;31.64;94731.97;5069442;28;20052;-47
2022/04/06 09:56:20;;;;;;;5.18;2.13;;;;;;;17.94;29.78;94735.16;5071100;28;20432;-46
2022/04/06 09:58:48;;;;;;;4.30;1.92;;;;;;;17.88;28.04;94712.56;5069827;28;20106;-47
2022/04/06 10:01:15;;;;;;;5.97;1.92;;;;;;;18.01;28.60;94732.19;5068724;28;20056;-48
2022/04/06 10:03:52;;;;;;;2.53;1.27;;;;;;;17.77;28.48;94722.41;5066398;28;20496;-47
2022/04/06 10:06:19;;;;;;;6.38;2.50;;;;;;;17.98;29.52;94722.22;5067459;28;20106;-49
2022/04/06 10:08:47;;;;;;;6.32;2.78;;;;;;;18.38;29.35;94714.91;5068959;28;20052;-49
2022/04/06 10:11:17;;;;;;;4.43;2.25;;;;;;;18.63;28.75;94715.66;5067671;28;20052;-51
2022/04/06 10:13:44;;;;;;;7.70;2.30;;;;;;;18.46;28.53;94716.91;5068337;28;20036;-48
2022/04/06 10:16:20;;;;;;;4.88;2.20;;;;;;;18.63;27.95;94713.00;5069068;28;20048;-47
2022/04/06 10:18:48;;;;;;;4.43;1.75;;;;;;;18.60;27.67;94710.94;5068818;28;20060;-50
2022/04/06 10:21:34;;;;;;;4.90;1.75;;;;;;;18.74;28.08;94703.88;5066883;28;20046;-50
2022/04/06 10:24:47;;;;;;;3.25;1.73;;;;;;;18.95;27.76;94695.72;5069965;28;20044;-49
2022/04/06 10:27:25;;;;;;;6.72;2.40;;;;;;;19.48;28.22;94690.09;5068615;28;20040;-47
2022/04/06 10:30:13;;;;;;;6.18;2.17;;;;;;;20.14;27.94;94687.38;5056523;28;20434;-46
2022/04/06 10:32:51;;;;;;;2.25;1.30;;;;;;;20.64;26.40;94682.16;5069101;28;20059;-48
2022/04/06 10:35:22;;;;;;;8.23;5.05;;;;;;;20.98;26.94;94665.00;5066325;28;20139;-49
2022/04/06 10:37:49;;;;;;;3.70;2.20;;;;;;;21.23;24.67;94684.00;5066333;28;20039;-48
2022/04/06 10:40:16;;;;;;;2.58;1.95;;;;;;;21.15;24.68;94678.34;5065809;28;20529;-46
2022/04/06 10:42:45;;;;;;;3.97;1.83;;;;;;;21.08;24.71;94664.72;5065572;28;20042;-46
2022/04/06 10:45:27;;;;;;;4.32;1.80;;;;;;;21.09;24.45;94674.25;5065079;28;20040;-49
2022/04/06 10:48:18;;;;;;;3.58;1.48;;;;;;;20.59;24.71;94666.34;5069054;28;20048;-50
2022/04/06 10:50:50;;;;;;;6.40;2.53;;;;;;;20.80;24.82;94667.50;5067845;28;20063;-47
2022/04/06 10:53:20;;;;;;;3.08;1.63;;;;;;;21.06;24.85;94663.47;5065534;28;20041;-45
2022/04/06 10:56:12;;;;;;;2.80;1.65;;;;;;;21.25;25.17;94644.75;5067721;28;20691;-52
2022/04/06 10:58:57;;;;;;;3.03;1.38;;;;;;;21.68;25.13;94644.22;5067457;28;20044;-48
2022/04/06 11:01:34;;;;;;;2.53;1.50;;;;;;;22.09;24.70;94635.16;5063863;28;20485;-47
2022/04/06 11:04:06;;;;;;;1.80;1.08;;;;;;;22.21;22.87;94643.31;5063335;28;20037;-50
2022/04/06 11:06:49;;;;;;;2.92;1.13;;;;;;;21.92;23.38;94639.31;5064012;28;20048;-50
2022/04/06 11:12:23;;;;;;;2.67;1.08;;;;;;;22.82;22.62;94634.66;5065870;28;20047;-52
2022/04/06 11:15:09;;;;;;;2.47;1.15;;;;;;;22.98;24.06;94633.06;5066016;28;20123;-52
2022/04/06 11:17:38;;;;;;;2.45;1.23;;;;;;;23.42;22.92;94631.13;5059233;28;20865;-52
2022/04/06 11:20:12;;;;;;;2.65;1.20;;;;;;;23.83;21.12;94624.44;5065172;28;20045;-53
2022/04/06 11:22:58;;;;;;;3.83;1.75;;;;;;;23.95;22.10;94625.66;5064050;28;20051;-51
2022/04/06 11:25:30;;;;;;;2.08;0.88;;;;;;;23.70;19.91;94624.63;5062797;28;20048;-48
2022/04/06 11:28:07;;;;;;;2.35;1.10;;;;;;;23.71;20.52;94616.34;5064466;28;20395;-50
2022/04/06 11:30:34;;;;;;;1.70;1.25;;;;;;;24.10;21.51;94616.34;5065804;28;20044;-48
2022/04/06 11:33:03;;;;;;;1.42;1.25;;;;;;;24.50;21.06;94613.28;5064531;28;20040;-47
2022/04/06 11:35:34;;;;;;;1.77;1.20;;;;;;;24.42;20.40;94615.69;5065199;28;21577;-50
2022/04/06 11:38:08;;;;;;;2.60;1.10;;;;;;;24.59;19.88;94606.03;5064840;28;20051;-48
2022/04/06 11:40:42;;;;;;;3.10;0.95;;;;;;;24.89;20.08;94601.41;5064046;28;20066;-51
2022/04/06 11:43:09;;;;;;;1.65;1.40;;;;;;;25.16;19.96;94601.94;5065802;28;20064;-49
2022/04/06 11:45:44;;;;;;;2.95;1.30;;;;;;;24.16;19.81;94597.19;5065726;28;20470;-49
2022/04/06 11:48:12;;;;;;;1.38;0.70;;;;;;;24.41;20.27;94590.16;5063796;28;20036;-48
2022/04/06 11:50:40;;;;;;;2.58;1.25;;;;;;;24.45;19.76;94590.28;5063822;28;20048;-50
2022/04/06 11:53:18;;;;;;;3.42;1.27;;;;;;;22.95;20.83;94585.91;5065069;28;20040;-46